^^
Saratoga-Weather Station Historical Data
Daily Summary for June 18, 2021 Units:  English    Metric   Both
Daily Weekly Monthly Yearly Custom
  High: Low: Average:
Temperature: 50.2 °F 48.4 °F 48.9 °F
Dew Point: 48 °F 46.2 °F 46.9 °F
Humidity: 94% 92% 93%
Wind Speed: 8.9mph 0mph 2.6mph
Wind Gust: 12mph - -
Wind- - West
Pressure: 29.9 in 29.9 in -
Precipitation: 0.08 in    
Historical Graphs
 
 
Tabular Data for June 18, 2021
Time Temperature Dew Point Pressure Wind Wind Speed Wind Gust Humidity Rainfall Rate (Hourly) solar
00:02 50.2 °F 48 °F 29.9 in WSW 2.9 mph 12 mph 92% 0.02 in 0 W/m2
00:07 50.2 °F 48 °F 29.9 in WSW 2.9 mph 8 mph 92% 0.02 in 0 W/m2
00:12 50.2 °F 48 °F 29.9 in West 2.9 mph 10 mph 92% 0.02 in 0 W/m2
00:17 50 °F 47.8 °F 29.9 in WSW 0.9 mph 7 mph 92% 0.02 in 0 W/m2
00:22 49.8 °F 47.7 °F 29.9 in SW 2.9 mph 9 mph 92% 0.02 in 0 W/m2
00:27 49.8 °F 47.7 °F 29.9 in West 2.9 mph 5 mph 92% 0.02 in 0 W/m2
00:32 49.8 °F 47.7 °F 29.9 in WSW 4 mph 9 mph 92% 0.02 in 0 W/m2
00:37 49.8 °F 47.7 °F 29.9 in West 4 mph 9 mph 92% 0.02 in 0 W/m2
00:42 49.6 °F 47.5 °F 29.9 in West 8.9 mph 9 mph 92% 0.02 in 0 W/m2
00:47 49.6 °F 47.5 °F 29.9 in West 0.9 mph 4 mph 92% 0.01 in 0 W/m2
00:52 49.5 °F 47.3 °F 29.9 in West 4 mph 6 mph 92% 0 in 0 W/m2
00:57 49.5 °F 47.3 °F 29.9 in WSW 2 mph 3 mph 92% 0 in 0 W/m2
01:02 49.3 °F 47.1 °F 29.9 in WSW 0.9 mph 6 mph 92% 0 in 0 W/m2
01:07 49.3 °F 47.1 °F 29.9 in West 4 mph 4 mph 92% 0 in 0 W/m2
01:12 49.1 °F 46.9 °F 29.9 in SW 6.9 mph 12 mph 92% 0 in 0 W/m2
01:17 49.1 °F 46.9 °F 29.9 in West 2.9 mph 7 mph 92% 0 in 0 W/m2
01:22 49.3 °F 47.1 °F 29.9 in WNW 2 mph 12 mph 92% 0 in 0 W/m2
01:27 49.3 °F 47.1 °F 29.9 in NW 2 mph 5 mph 92% 0 in 0 W/m2
01:32 49.3 °F 47.1 °F 29.9 in West 4 mph 8 mph 92% 0 in 0 W/m2
01:37 49.3 °F 47.1 °F 29.9 in West 2.9 mph 7 mph 92% 0 in 0 W/m2
01:42 49.3 °F 47.1 °F 29.9 in West 2.9 mph 12 mph 92% 0.01 in 0 W/m2
01:47 49.1 °F 46.9 °F 29.9 in West 6 mph 9 mph 92% 0.01 in 0 W/m2
01:52 48.9 °F 46.8 °F 29.9 in WNW 2 mph 12 mph 92% 0.01 in 0 W/m2
01:57 48.9 °F 46.8 °F 29.9 in West 4 mph 8 mph 92% 0.01 in 0 W/m2
02:02 48.7 °F 46.6 °F 29.9 in WSW 4.9 mph 5 mph 92% 0.01 in 0 W/m2
02:07 48.6 °F 46.4 °F 29.9 in WNW 2.9 mph 4 mph 92% 0.01 in 0 W/m2
02:12 48.4 °F 46.2 °F 29.9 in NW 2 mph 6 mph 92% 0.02 in 0 W/m2
02:17 48.4 °F 46.4 °F 29.9 in NNW 2 mph 4 mph 93% 0.02 in 0 W/m2
02:22 48.4 °F 46.4 °F 29.9 in West 0.9 mph 4 mph 93% 0.02 in 0 W/m2
02:27 48.4 °F 46.4 °F 29.9 in WNW 4 mph 7 mph 93% 0.02 in 0 W/m2
02:32 48.4 °F 46.4 °F 29.9 in West 4 mph 7 mph 93% 0.02 in 0 W/m2
02:37 48.4 °F 46.4 °F 29.9 in NW 2 mph 4 mph 93% 0.02 in 0 W/m2
02:42 48.4 °F 46.4 °F 29.9 in West 2.9 mph 7 mph 93% 0.01 in 0 W/m2
02:47 48.6 °F 46.6 °F 29.9 in West 2 mph 3 mph 93% 0.01 in 0 W/m2
02:52 48.6 °F 46.6 °F 29.9 in WNW 2 mph 5 mph 93% 0.01 in 0 W/m2
02:57 48.6 °F 46.6 °F 29.9 in West 0.9 mph 2 mph 93% 0.01 in 0 W/m2
03:02 48.6 °F 46.6 °F 29.9 in WNW 4 mph 4 mph 93% 0.01 in 0 W/m2
03:07 48.6 °F 46.6 °F 29.9 in NNW 0.9 mph 1 mph 93% 0.01 in 0 W/m2
03:12 48.7 °F 46.8 °F 29.9 in Calm   2 mph 93% 0 in 0 W/m2
03:17 48.7 °F 46.8 °F 29.9 in NW 2 mph 3 mph 93% 0.02 in 0 W/m2
03:22 48.7 °F 46.8 °F 29.9 in WNW 6.9 mph 9 mph 93% 0.03 in 0 W/m2
03:27 48.7 °F 46.8 °F 29.9 in WNW 2.9 mph 6 mph 93% 0.03 in 0 W/m2
03:32 48.9 °F 46.9 °F 29.9 in West 2 mph 6 mph 93% 0.03 in 0 W/m2
03:37 48.9 °F 46.9 °F 29.9 in West 2 mph 8 mph 93% 0.03 in 0 W/m2
03:42 48.9 °F 46.9 °F 29.9 in WSW 6.9 mph 7 mph 93% 0.03 in 0 W/m2
03:47 48.9 °F 46.9 °F 29.9 in Calm   2 mph 93% 0.03 in 0 W/m2
03:52 48.7 °F 46.8 °F 29.9 in WSW 6 mph 6 mph 93% 0.03 in 0 W/m2
03:57 48.7 °F 46.8 °F 29.9 in West 0.9 mph 4 mph 93% 0.03 in 0 W/m2
04:02 48.6 °F 46.6 °F 29.9 in Calm   2 mph 93% 0.03 in 0 W/m2
04:07 48.6 °F 46.6 °F 29.9 in Calm   4 mph 93% 0.03 in 0 W/m2
04:12 48.4 °F 46.8 °F 29.9 in WSW 0.9 mph 3 mph 94% 0.03 in 0 W/m2
04:17 48.6 °F 46.9 °F 29.9 in WSW 2.9 mph 7 mph 94% 0.02 in 0 W/m2
04:22 48.6 °F 46.9 °F 29.9 in WSW 0.9 mph 2 mph 94% 0 in 0 W/m2
04:27 48.7 °F 47.1 °F 29.9 in WNW 2 mph 7 mph 94% 0 in 0 W/m2
04:32 48.7 °F 47.1 °F 29.9 in WNW 2 mph 4 mph 94% 0 in 0 W/m2
04:37 48.7 °F 47.1 °F 29.9 in West 4 mph 7 mph 94% 0 in 0 W/m2
04:42 48.7 °F 47.1 °F 29.9 in West 2 mph 5 mph 94% 0.02 in 0 W/m2
04:47 48.7 °F 47.1 °F 29.9 in West 2 mph 8 mph 94% 0.03 in 0 W/m2
04:52 48.7 °F 47.1 °F 29.9 in NW 2.9 mph 4 mph 94% 0.03 in 0 W/m2
04:57 48.7 °F 46.8 °F 29.9 in Calm   8 mph 93% 0.03 in 0 W/m2
05:02 48.7 °F 46.8 °F 29.9 in West 2.9 mph 6 mph 93% 0.03 in 0 W/m2
05:07 48.7 °F 46.8 °F 29.9 in West 6 mph 8 mph 93% 0.03 in 0 W/m2
05:12 48.7 °F 46.8 °F 29.9 in WSW 4.9 mph 8 mph 93% 0.03 in 0 W/m2
05:17 48.7 °F 46.8 °F 29.9 in WNW 4 mph 9 mph 93% 0.03 in 0 W/m2
05:22 48.6 °F 46.6 °F 29.9 in WSW 4 mph 5 mph 93% 0.03 in 0 W/m2
05:27 48.6 °F 46.6 °F 29.9 in WNW 2.9 mph 9 mph 93% 0.03 in 0 W/m2
05:32 48.6 °F 46.6 °F 29.9 in Calm   7 mph 93% 0.03 in 0 W/m2
05:37 48.4 °F 46.4 °F 29.9 in WSW 4 mph 5 mph 93% 0.03 in 0 W/m2
05:42 48.4 °F 46.4 °F 29.9 in West 2.9 mph 8 mph 93% 0.02 in 0 W/m2
05:47 48.4 °F 46.4 °F 29.9 in WNW 4 mph 7 mph 93% 0 in 0 W/m2
05:52 48.4 °F 46.4 °F 29.9 in WSW 2 mph 8 mph 93% 0 in 0 W/m2
05:57 48.4 °F 46.4 °F 29.9 in WNW 6 mph 9 mph 93% 0 in 5 W/m2
06:02 48.4 °F 46.4 °F 29.9 in West 2 mph 4 mph 93% 0 in 7 W/m2
06:07 48.4 °F 46.4 °F 29.9 in WNW 4 mph 9 mph 93% 0 in 9 W/m2
06:12 48.4 °F 46.4 °F 29.9 in West 2 mph 8 mph 93% 0 in 11 W/m2
06:17 48.4 °F 46.4 °F 29.9 in NW 2 mph 4 mph 93% 0 in 14 W/m2
06:22 48.4 °F 46.4 °F 29.9 in WNW 0.9 mph 3 mph 93% 0 in 12 W/m2
06:27 48.6 °F 46.6 °F 29.9 in WNW 0.9 mph 5 mph 93% 0 in 16 W/m2
06:32 48.6 °F 46.6 °F 29.9 in Calm   2 mph 93% 0 in 14 W/m2
06:38 48.6 °F 46.6 °F 29.9 in West 2.9 mph 7 mph 93% 0 in 19 W/m2
06:43 48.6 °F 46.6 °F 29.9 in West 2 mph 4 mph 93% 0 in 28 W/m2
06:48 48.7 °F 46.8 °F 29.9 in WSW 0.9 mph 4 mph 93% 0 in 30 W/m2
06:53 48.7 °F 46.8 °F 29.9 in WSW 2 mph 6 mph 93% 0 in 19 W/m2
06:58 48.9 °F 46.9 °F 29.9 in WNW 2.9 mph 3 mph 93% 0 in 26 W/m2
07:03 48.9 °F 46.9 °F 29.9 in West 2.9 mph 4 mph 93% 0 in 32 W/m2
07:08 48.9 °F 46.9 °F 29.9 in West 2 mph 3 mph 93% 0 in 35 W/m2
07:13 48.9 °F 46.9 °F 29.9 in West 0.9 mph 7 mph 93% 0 in 39 W/m2
07:18 49.1 °F 47.1 °F 29.9 in NW 2 mph 3 mph 93% 0 in 40 W/m2
07:23 49.3 °F 47.3 °F 29.9 in WSW 0.9 mph 7 mph 93% 0 in 35 W/m2
07:28 49.3 °F 47.3 °F 29.9 in WSW 0.9 mph 5 mph 93% 0 in 44 W/m2
07:33 49.3 °F 47.3 °F 29.9 in WNW 0.9 mph 2 mph 93% 0 in 46 W/m2
07:38 49.5 °F 47.5 °F 29.9 in West 2 mph 4 mph 93% 0 in 44 W/m2
07:43 49.5 °F 47.5 °F 29.9 in NW 0.9 mph 2 mph 93% 0 in 40 W/m2
07:48 49.5 °F 47.5 °F 29.9 in WNW 0.9 mph 6 mph 93% 0 in 63 W/m2
07:53 49.5 °F 47.3 °F 29.9 in WNW 2.9 mph 7 mph 92% 0 in 51 W/m2
07:58 49.5 °F 47.3 °F 29.9 in ENE 2.9 mph 4 mph 92% 0 in 54 W/m2
08:03 49.5 °F 47.3 °F 29.9 in WSW 2 mph 4 mph 92% 0 in 76 W/m2
08:08 49.6 °F 47.5 °F 29.9 in West 2.9 mph 7 mph 92% 0 in 67 W/m2
08:13 49.6 °F 47.5 °F 29.9 in NW 4.9 mph 5 mph 92% 0 in 95 W/m2
Juneau County Weather
Compliments of Weather Underground - 2 mb